Bethel, Kentucky
Current Conditions -  °F | °C
As of 1:35 PM on Sunday 23 Nov 2014 (Local Time) from KIOB Reporting Station
Overcast Overcast  
Wind Chill: 55°   Ceiling: 6000
Heat Index: 55°   Visibility: 10mi
Dew Point: 50°   Wind: 7mph
Humidity: 82%   Direction: 140°SE
Pressure: 29.8"   Gusts: NA
Location:  38.2169°N, 83.8725°W
Report Text: KIOB 231835Z AUTO 14006KT 10SM BKN060 OVC070 13/10 A2980 RMK AO2 P0001
Loading
Personal Weather Stations






























Interactive Weather Map New forecast layout! Learn more

10-Day Weather Forecast

Advertisements
Track Severe Weather on mobile